Date,TemperatureHighF,TemperatureAvgF,TemperatureLowF,DewpointHighF,DewpointAvgF,DewpointLowF,HumidityHigh,HumidityAvg,HumidityLow,PressureMaxIn,PressureMinIn,WindSpeedMaxMPH,WindSpeedAvgMPH,GustSpeedMaxMPH,PrecipitationSumIn
2013-1-1,49,47,44,35,25,2,69,46,15,30.10,29.93,0,0,0,0.21
2013-1-2,49,45,40,37,18,-9,68,42,8,30.17,29.94,0,0,0,0.20
2013-1-3,44,39,29,32,20,9,67,48,31,30.25,30.14,0,0,0,0.00
2013-1-4,48,37,27,27,20,5,70,51,38,30.30,30.17,0,0,0,0.00
2013-1-5,49,37,28,31,25,20,70,62,44,30.38,30.23,0,0,0,0.00
2013-1-6,52,44,38,39,33,28,70,66,61,30.23,30.05,0,0,0,0.01
2013-1-7,50,40,31,34,28,18,71,63,53,30.42,30.18,0,0,0,0.00
2013-1-8,54,41,29,42,30,18,70,65,50,30.46,30.35,0,0,0,0.00
2013-1-9,65,50,35,53,35,10,69,59,29,30.44,30.34,0,0,0,0.00
2013-1-10,63,54,49,46,38,18,69,55,27,30.52,30.42,0,0,0,0.00
2013-1-11,50,46,42,38,19,-7,71,41,5,30.42,30.15,0,0,0,0.20
2013-1-12,68,57,46,42,7,-7,39,10,1,30.17,30.10,0,0,0,0.00
2013-1-13,63,56,52,31,6,-3,30,10,2,30.11,30.07,0,0,0,0.00
2013-1-14,63,61,57,6,4,1,1,1,1,30.15,30.12,0,0,0,0.01
2013-1-15,55,46,43,0,-8,-10,12,6,2,30.23,30.08,0,0,0,0.13
2013-1-16,50,46,41,-5,-8,-11,7,2,1,30.07,29.97,0,0,0,0.17
2013-1-17,50,45,34,4,-7,-17,24,3,1,30.15,29.89,0,0,0,1.46
2013-1-18,42,35,29,30,8,-18,67,38,3,30.51,30.14,0,0,0,0.29
2013-1-19,50,35,24,34,16,-8,67,48,18,30.48,30.14,0,0,0,0.16
2013-1-20,59,46,37,38,31,25,66,56,41,30.14,29.99,0,0,0,0.00
2013-1-21,57,43,30,34,24,10,67,49,34,30.09,29.86,0,0,0,0.00
2013-1-22,41,32,24,19,7,0,47,35,22,30.27,29.96,0,0,0,0.00
2013-1-23,41,28,18,18,11,4,65,49,37,30.35,30.03,0,0,0,0.00
2013-1-24,36,31,25,24,12,4,67,48,31,30.49,29.95,0,0,0,0.00
2013-1-25,27,25,20,17,11,4,70,55,42,30.49,30.09,0,0,0,0.01
2013-1-26,38,31,26,25,11,-7,59,45,23,30.39,30.06,0,0,0,0.02
2013-1-27,40,32,23,29,18,4,67,57,38,30.57,30.37,0,0,0,0.02
2013-1-28,50,42,33,39,26,-2,66,54,13,30.48,30.22,0,0,0,0.03
2013-1-29,70,57,48,57,24,-6,66,34,1,30.23,30.05,0,0,0,0.00
2013-1-30,71,65,57,53,20,1,54,18,1,30.06,29.39,0,0,0,0.38
2013-1-31,60,45,34,36,25,2,65,47,12,30.00,29.47,0,0,0,0.07
2013-2-1,40,33,25,28,14,5,67,46,28,30.36,29.86,0,0,0,0.00
2013-2-2,43,32,20,32,15,8,67,50,33,30.37,30.02,0,0,0,0.00
2013-2-3,48,40,34,30,25,8,66,56,36,30.02,29.84,0,0,0,0.00
2013-2-4,48,38,27,27,23,18,69,56,39,30.14,29.98,0,0,0,0.00
2013-2-5,58,45,37,37,32,26,69,60,43,30.00,29.88,0,0,0,0.00
2013-2-6,58,45,32,36,27,12,69,51,29,30.26,29.97,0,0,0,0.00
2013-2-7,45,41,37,34,23,-11,68,53,9,30.32,30.00,0,0,0,0.62
2013-2-8,54,44,37,42,12,-15,64,34,7,30.05,29.81,0,0,0,0.41
2013-2-9,50,38,29,28,22,18,70,53,30,30.34,30.05,0,0,0,0.00
2013-2-10,52,40,27,34,24,18,69,56,38,30.47,30.19,0,0,0,0.07
2013-2-11,61,53,44,34,10,-4,68,17,1,30.20,29.91,0,0,0,0.08
2013-2-12,58,51,44,37,24,-28,66,39,1,30.09,29.94,0,0,0,0.00
2013-2-13,49,45,40,36,12,-8,65,28,1,29.95,29.63,0,0,0,0.30
2013-2-14,50,40,31,34,22,-10,67,49,16,30.07,29.83,0,0,0,0.00
2013-2-15,60,45,31,40,22,-16,64,42,7,30.08,29.92,0,0,0,0.00
2013-2-16,44,36,28,33,10,-17,67,38,11,29.98,29.84,0,0,0,0.22
2013-2-17,36,28,23,15,12,7,68,50,36,30.25,29.92,0,0,0,0.01
2013-2-18,50,34,18,28,19,9,68,56,39,30.38,30.24,0,0,0,0.10
2013-2-19,48,40,30,26,8,-13,66,34,1,30.22,29.86,0,0,0,0.21
2013-2-20,52,39,28,25,18,-5,66,45,16,30.13,29.97,0,0,0,0.00
2013-2-21,52,40,26,24,19,15,63,44,29,30.24,30.11,0,0,0,0.00
2013-2-22,43,37,34,24,18,2,61,48,24,30.31,30.14,0,0,0,0.29
2013-2-23,42,40,36,-9,-12,-15,14,5,1,29.99,29.82,0,0,0,0.21
2013-2-24,60,48,39,41,14,-13,60,29,1,30.02,29.80,0,0,0,0.01
2013-2-25,43,38,34,26,24,22,65,58,49,30.21,30.03,0,0,0,0.00
2013-2-26,52,42,34,26,4,-13,66,24,1,30.13,29.56,0,0,0,0.65
2013-2-27,57,47,40,40,17,-12,64,34,1,29.78,29.63,0,0,0,0.00
2013-2-28,48,42,36,32,24,1,66,49,21,29.86,29.70,0,0,0,0.00
2013-3-1,45,39,30,30,25,13,66,57,46,29.91,29.83,0,0,0,0.00
2013-3-2,47,37,28,28,23,16,66,57,46,29.92,29.81,0,0,0,0.00
2013-3-3,44,35,30,23,20,17,63,53,41,29.96,29.85,0,0,0,0.00
2013-3-4,50,36,25,22,17,14,64,48,28,30.10,29.96,0,0,0,0.00
2013-3-5,45,41,35,32,19,-9,66,46,1,30.06,29.57,0,0,0,0.29
2013-3-6,46,41,36,30,16,-16,66,42,1,30.03,29.53,0,0,0,0.02
2013-3-7,50,41,33,32,27,20,64,58,48,30.23,30.03,0,0,0,0.00
2013-3-8,56,42,31,28,25,20,68,52,32,30.28,30.14,0,0,0,0.00
2013-3-9,63,46,31,34,28,20,67,52,34,30.33,30.23,0,0,0,0.00
2013-3-10,49,39,34,27,26,24,67,60,43,30.29,30.22,0,0,0,0.00
2013-3-11,67,54,40,51,40,25,67,58,46,30.23,29.93,0,0,0,0.00
2013-3-12,67,59,49,53,24,0,61,29,1,29.96,29.75,0,0,0,0.71
2013-3-13,54,45,33,32,27,20,67,50,32,30.11,29.95,0,0,0,0.00
2013-3-14,52,40,30,23,19,16,59,44,28,30.22,30.10,0,0,0,0.00
2013-3-15,62,46,28,36,27,18,67,49,37,30.17,29.90,0,0,0,0.00
2013-3-16,77,59,43,52,42,32,67,55,38,29.89,29.67,0,0,0,0.00
2013-3-17,61,51,42,49,35,14,67,56,21,30.16,29.84,0,0,0,0.00
2013-3-18,42,40,38,23,10,-13,50,31,5,30.17,29.84,0,0,0,0.27
2013-3-19,65,50,37,38,9,-14,57,18,1,30.03,29.82,0,0,0,0.00
2013-3-20,56,46,37,23,16,10,55,31,22,30.10,29.81,0,0,0,0.00
2013-3-21,43,38,31,28,18,11,63,45,32,29.96,29.74,0,0,0,0.00
2013-3-22,52,37,22,21,15,11,62,43,25,30.06,29.95,0,0,0,0.00
2013-3-23,45,38,34,27,24,19,65,57,43,30.04,29.97,0,0,0,0.00
2013-3-24,41,38,36,29,9,-14,66,35,7,29.93,29.56,0,0,0,0.06
2013-3-25,47,40,35,32,12,-17,62,35,5,29.81,29.56,0,0,0,0.02
2013-3-26,47,41,32,30,26,20,67,56,46,30.10,29.81,0,0,0,0.00
2013-3-27,50,40,30,26,23,17,67,51,35,30.22,30.10,0,0,0,0.00
2013-3-28,56,42,28,28,24,18,66,50,31,30.27,30.14,0,0,0,0.00
2013-3-29,61,44,28,30,25,16,66,49,28,30.31,30.17,0,0,0,0.00
2013-3-30,67,53,38,42,34,28,65,49,32,30.23,30.07,0,0,0,0.00
2013-3-31,67,56,49,54,34,-2,66,47,6,30.09,29.81,0,0,0,0.67
2013-4-1,71,59,50,49,24,-4,62,30,1,29.98,29.83,0,0,0,0.09
2013-4-2,62,48,34,36,28,22,67,47,27,30.15,29.99,0,0,0,0.00
2013-4-3,58,48,36,27,23,19,54,38,24,30.29,30.13,0,0,0,0.00
2013-4-4,49,42,38,33,19,-14,63,41,10,30.34,29.95,0,0,0,0.77
2013-4-5,70,49,36,48,15,-16,63,28,1,30.02,29.88,0,0,0,0.03
2013-4-6,68,52,41,38,32,28,65,48,30,30.26,30.02,0,0,0,0.00
2013-4-7,72,57,38,46,39,27,67,53,38,30.27,30.11,0,0,0,0.00
2013-4-8,81,64,52,57,46,28,66,53,31,30.17,30.06,0,0,0,0.00
2013-4-9,86,70,55,60,51,33,66,52,39,30.19,30.08,0,0,0,0.00
2013-4-10,88,73,59,63,56,44,67,56,40,30.12,29.97,0,0,0,0.00
2013-4-11,72,71,71,60,59,57,67,65,61,29.82,29.81,0,0,0,0.00
2013-4-12,84,72,64,64,44,7,62,41,1,29.82,29.63,0,0,0,0.54
2013-4-13,79,62,48,47,42,38,66,49,31,30.03,29.80,0,0,0,0.00
2013-4-14,80,63,43,50,43,30,67,50,28,30.11,30.02,0,0,0,0.00
2013-4-15,72,64,57,58,48,33,66,57,39,30.22,30.02,0,0,0,0.09
2013-4-16,80,67,61,62,50,34,66,55,37,30.31,30.21,0,0,0,0.00
2013-4-17,81,68,57,65,49,17,66,52,17,30.24,30.12,0,0,0,0.00
2013-4-18,80,70,61,63,50,27,66,51,22,30.21,30.06,0,0,0,0.00
2013-4-19,78,70,63,63,31,6,59,27,1,30.06,29.73,0,0,0,0.49
2013-4-20,66,55,45,41,35,6,64,49,1,30.27,29.85,0,0,0,0.00
2013-4-21,63,52,41,42,35,19,64,54,41,30.48,30.27,0,0,0,0.05
2013-4-22,63,51,38,42,35,22,66,56,41,30.47,30.26,0,0,0,0.00
2013-4-23,70,56,47,53,36,16,63,48,29,30.29,30.12,0,0,0,0.02
2013-4-24,75,62,49,59,40,-2,65,47,3,30.15,29.99,0,0,0,0.00
2013-4-25,71,60,48,48,43,35,67,54,39,30.28,30.03,0,0,0,0.00
2013-4-26,72,57,42,47,38,28,65,51,33,30.43,30.28,0,0,0,0.00
2013-4-27,72,61,52,53,47,40,67,59,44,30.37,30.27,0,0,0,0.00
2013-4-28,59,56,55,46,31,-1,62,42,2,30.27,30.10,0,0,0,0.72
2013-4-29,71,61,55,44,10,-1,40,8,1,30.09,29.98,0,0,0,0.28
2013-4-30,66,59,53,38,8,-2,36,8,1,30.20,30.02,0,0,0,0.00
2013-5-1,61,56,53,4,1,-2,1,1,1,30.33,30.18,0,0,0,0.03
2013-5-2,62,56,52,5,0,-3,7,1,1,30.34,30.27,0,0,0,0.00
2013-5-5,57,54,50,18,1,-5,24,7,1,30.11,29.99,0,0,0,0.02
2013-5-6,64,55,51,6,0,-4,1,1,1,30.01,29.85,0,0,0,1.43
2013-5-7,71,58,48,55,12,-6,59,15,1,29.96,29.87,0,0,0,0.02
2013-5-8,69,60,52,37,7,-3,34,6,1,30.02,29.94,0,0,0,0.47
2013-5-9,79,64,50,62,24,-4,56,23,1,30.08,29.99,0,0,0,0.00
2013-5-10,85,71,58,64,32,1,56,26,1,30.09,29.98,0,0,0,0.00
2013-5-11,80,71,66,62,21,8,55,15,1,29.98,29.82,0,0,0,0.00
2013-5-12,72,64,53,52,28,1,58,29,1,30.04,29.83,0,0,0,0.00
2013-5-13,67,55,42,42,30,-10,60,40,2,30.18,30.03,0,0,0,0.00
2013-5-16,85,73,62,66,41,5,56,35,1,30.01,29.92,0,0,0,0.00
2013-5-17,87,74,61,67,35,4,56,27,1,30.11,30.01,0,0,0,0.00
2013-5-18,76,69,61,15,10,4,8,1,1,30.19,30.09,0,0,0,0.00
2013-5-19,80,66,60,31,8,4,18,1,1,30.17,30.08,0,0,0,0.76
2013-5-20,78,66,62,17,8,5,8,1,1,30.14,30.05,0,0,0,0.15
2013-5-21,84,71,62,41,12,5,23,1,1,30.08,29.97,0,0,0,0.00
2013-5-22,85,73,64,62,20,7,49,9,1,30.06,29.94,0,0,0,0.02
2013-5-23,81,70,61,36,11,4,21,2,1,30.00,29.85,0,0,0,1.32
2013-5-24,68,61,52,52,26,0,59,29,1,30.21,29.86,0,0,0,0.00
2013-5-25,74,58,44,52,28,-10,58,34,1,30.28,30.14,0,0,0,0.00
2013-5-26,75,61,48,53,30,-6,57,35,6,30.28,30.18,0,0,0,0.00
2013-5-27,80,66,51,60,31,-4,56,31,1,30.28,30.16,0,0,0,0.00
2013-5-28,85,71,60,66,30,4,54,23,1,30.26,30.17,0,0,0,0.00
2013-5-29,86,74,60,67,33,3,55,25,1,30.27,30.18,0,0,0,0.00
2013-5-30,87,73,61,68,27,4,54,18,1,30.30,30.21,0,0,0,0.00
2013-5-31,87,75,63,68,32,5,54,22,1,30.25,30.14,0,0,0,0.00
2013-6-1,84,77,72,65,43,12,54,33,1,30.09,30.06,0,0,0,0.00
2013-6-2,86,75,64,66,27,7,53,16,1,30.08,29.94,0,0,0,0.00
2013-6-3,67,63,60,8,6,4,1,1,1,29.98,29.90,0,0,0,0.54
2013-6-4,76,65,59,16,8,3,3,1,1,30.12,29.97,0,0,0,0.00
2013-6-5,80,68,58,61,18,2,54,11,1,30.16,30.05,0,0,0,0.00
2013-6-6,70,67,64,12,9,7,11,2,1,30.06,29.85,0,0,0,0.47
2013-6-7,70,66,64,10,8,6,1,1,1,29.88,29.59,0,0,0,1.56
2013-6-8,84,71,61,50,14,4,33,4,1,30.13,29.85,0,0,0,0.03
2013-6-9,89,74,62,62,16,4,43,4,1,30.19,30.09,0,0,0,0.01
2013-6-10,82,70,67,20,11,9,1,1,1,30.13,29.91,0,0,0,0.78
2013-6-11,86,74,64,64,25,7,50,14,1,29.99,29.93,0,0,0,0.00
2013-6-12,90,76,60,58,20,3,36,7,1,30.01,29.91,0,0,0,0.00
2013-6-13,94,77,64,72,27,6,51,12,1,29.91,29.65,0,0,0,0.14
2013-6-14,80,72,55,61,36,0,53,30,1,30.04,29.78,0,0,0,0.00
2013-6-15,86,71,58,67,27,2,53,20,1,30.15,30.04,0,0,0,0.00
2013-6-16,88,75,66,64,25,7,46,12,1,30.15,30.04,0,0,0,0.00
2013-6-17,86,77,71,41,16,11,21,2,1,30.07,29.96,0,0,0,0.00
2013-6-18,83,70,65,21,11,7,1,1,1,30.01,29.81,0,0,0,0.58
2013-6-19,81,70,60,24,11,3,13,1,1,30.15,29.92,0,0,0,0.00
2013-6-20,82,71,61,62,25,4,51,16,1,30.27,30.15,0,0,0,0.00
2013-6-21,84,71,56,64,32,0,53,25,1,30.30,30.22,0,0,0,0.00
2013-6-22,83,70,64,30,11,6,16,1,1,30.25,30.15,0,0,0,0.03
2013-6-23,87,73,61,42,14,4,21,2,1,30.25,30.15,0,0,0,0.00
2013-6-24,87,74,66,27,14,8,12,1,1,30.25,30.12,0,0,0,0.19
2013-6-25,90,75,64,47,15,6,24,3,1,30.16,30.04,0,0,0,0.00
2013-6-26,91,74,65,59,18,7,44,5,1,30.07,29.93,0,0,0,0.24
2013-6-27,88,76,64,38,15,-10,18,2,1,29.97,29.76,0,0,0,0.00
2013-6-28,90,76,67,62,20,8,39,6,1,29.79,29.61,0,0,0,0.48
2013-6-29,84,73,65,21,13,7,1,1,1,29.76,29.63,0,0,0,0.15
2013-6-30,86,71,66,23,12,8,3,1,1,29.89,29.75,0,0,0,0.83
2013-7-1,82,72,66,20,12,8,1,1,1,30.03,29.88,0,0,0,0.39
2013-7-2,73,70,68,13,11,10,1,1,1,30.21,30.02,0,0,0,0.34
2013-7-3,85,74,70,22,14,11,1,1,1,30.27,30.18,0,0,0,0.32
2013-7-4,84,74,71,21,14,11,1,1,1,30.30,30.21,0,0,0,0.43
2013-7-5,89,77,70,27,17,10,11,1,1,30.31,30.19,0,0,0,0.00
2013-7-8,74,74,73,14,14,13,1,1,1,30.19,30.18,0,0,0,0.00
2013-7-9,82,75,69,20,15,10,1,1,1,30.20,30.09,0,0,0,0.00
2013-7-10,88,76,69,24,16,10,5,1,1,30.14,29.98,0,0,0,0.61
2013-7-11,76,73,71,16,13,11,1,1,1,30.01,29.91,0,0,0,0.45
2013-7-12,73,70,67,13,11,9,1,1,1,30.07,29.91,0,0,0,0.08
2013-7-13,75,71,67,15,12,9,1,1,1,30.21,30.05,0,0,0,0.14
2013-7-14,87,76,69,50,17,10,28,3,1,30.33,30.20,0,0,0,0.54
2013-7-15,89,76,67,60,19,-4,40,5,1,30.36,30.28,0,0,0,0.01
2013-7-16,91,78,66,54,19,8,29,4,1,30.32,30.22,0,0,0,0.00
2013-7-17,91,80,70,62,22,4,40,5,1,30.26,30.14,0,0,0,0.00
2013-7-18,94,80,69,66,23,10,41,6,1,30.18,30.08,0,0,0,0.00
2013-7-19,90,79,70,55,20,10,31,4,1,30.14,30.02,0,0,0,0.00
2013-7-20,88,78,70,35,17,11,16,2,1,30.06,29.96,0,0,0,0.00
2013-7-21,89,76,70,49,16,10,26,2,1,30.03,29.94,0,0,0,0.02
2013-7-22,88,76,68,44,16,9,23,3,1,29.99,29.87,0,0,0,0.00
2013-7-23,89,78,69,60,22,-10,40,7,1,29.88,29.77,0,0,0,0.00
2013-7-24,91,78,65,69,26,7,49,12,1,29.89,29.78,0,0,0,0.00
2013-7-25,80,72,63,21,12,6,12,2,1,30.07,29.86,0,0,0,0.02
2013-7-26,85,72,59,61,21,3,45,11,1,30.14,30.04,0,0,0,0.00
2013-7-27,83,70,64,30,11,6,16,1,1,30.08,29.96,0,0,0,0.68
2013-7-28,86,74,65,46,16,7,26,4,1,30.05,29.95,0,0,0,0.41
2013-7-29,84,73,64,63,25,6,50,15,1,30.20,30.02,0,0,0,0.00
2013-7-30,85,72,58,61,21,1,48,12,1,30.25,30.17,0,0,0,0.00
2013-7-31,82,73,65,20,14,7,1,1,1,30.18,30.03,0,0,0,0.36
2013-8-1,83,73,67,21,13,9,1,1,1,30.04,29.91,0,0,0,0.11
2013-8-2,86,74,64,63,20,-9,47,8,1,30.07,29.95,0,0,0,0.51
2013-8-3,89,75,66,44,15,8,22,2,1,30.06,29.96,0,0,0,0.12
2013-8-4,83,74,66,63,24,8,52,13,1,30.07,29.94,0,0,0,0.00
2013-8-5,81,71,60,57,17,4,45,7,1,30.13,30.04,0,0,0,0.00
2013-8-6,80,71,62,28,12,5,17,2,1,30.10,30.03,0,0,0,0.58
2013-8-7,83,74,65,52,17,4,35,5,1,30.14,30.07,0,0,0,0.00
2013-8-8,84,75,67,22,15,8,6,1,1,30.11,30.04,0,0,0,0.02
2013-8-9,90,76,69,51,17,10,27,3,1,30.09,30.03,0,0,0,0.03
2013-8-10,92,76,70,61,17,-4,36,3,1,30.13,30.06,0,0,0,0.24
2013-8-11,90,76,70,50,17,10,26,3,1,30.15,30.06,0,0,0,0.23
2013-8-12,89,78,70,63,21,11,44,6,1,30.09,29.98,0,0,0,0.61
2013-8-13,87,75,70,24,15,11,1,1,1,30.02,29.83,0,0,0,0.14
2013-8-14,75,70,60,15,11,3,6,1,1,30.12,29.87,0,0,0,0.00
2013-8-15,75,63,54,54,14,-1,49,11,1,30.20,30.11,0,0,0,0.00
2013-8-16,70,61,55,11,4,0,1,1,1,30.21,30.12,0,0,0,0.00
2013-8-17,70,64,57,10,6,1,1,1,1,30.21,30.15,0,0,0,0.27
2013-8-18,75,69,66,15,10,8,1,1,1,30.24,30.13,0,0,0,0.08
2013-8-19,74,69,66,14,10,8,1,1,1,30.22,30.13,0,0,0,0.35
2013-8-20,77,72,65,16,12,7,1,1,1,30.22,30.14,0,0,0,0.00
2013-8-21,82,74,71,20,14,12,1,1,1,30.26,30.13,0,0,0,0.65
2013-8-22,87,76,71,24,15,12,3,1,1,30.18,30.03,0,0,0,0.00
2013-8-23,83,74,67,21,14,9,1,1,1,30.13,29.98,0,0,0,0.15
2013-8-24,81,70,63,59,17,0,49,9,1,30.33,30.12,0,0,0,0.00
2013-8-25,77,67,59,42,10,2,29,4,1,30.42,30.32,0,0,0,0.00
2013-8-26,81,66,54,61,18,-17,51,12,1,30.35,30.15,0,0,0,0.00
2013-8-27,87,72,62,50,13,-11,29,2,1,30.16,30.00,0,0,0,0.00
2013-8-28,80,76,70,19,15,10,1,1,1,30.04,29.91,0,0,0,0.00
2013-8-29,84,76,72,21,16,12,1,1,1,30.06,29.89,0,0,0,0.00
2013-8-30,72,70,68,12,11,10,1,1,1,30.07,29.99,0,0,0,0.00
2013-8-31,86,74,67,23,14,9,3,1,1,30.01,29.90,0,0,0,0.00
2013-9-1,80,73,71,18,13,11,1,1,1,29.94,29.86,0,0,0,0.65
2013-9-2,82,75,70,20,15,11,1,1,1,29.94,29.84,0,0,0,0.03
2013-9-3,86,76,71,27,16,12,12,1,1,29.99,29.84,0,0,0,0.00
2013-9-4,84,72,64,36,12,6,18,1,1,30.13,29.99,0,0,0,0.00
2013-9-5,85,72,65,65,24,-3,51,15,1,30.14,30.07,0,0,0,0.00
2013-9-6,80,68,58,60,20,2,51,14,1,30.22,30.12,0,0,0,0.00
2013-9-7,80,68,58,53,14,2,39,7,1,30.17,30.01,0,0,0,0.00
2013-9-8,85,72,63,64,23,6,51,14,1,30.03,29.96,0,0,0,0.00
2013-9-9,86,73,65,51,16,7,31,4,1,30.18,30.03,0,0,0,0.00
2013-9-10,89,76,68,65,21,9,47,8,1,30.27,30.17,0,0,0,0.00
2013-9-11,88,75,67,65,22,8,47,9,1,30.24,30.11,0,0,0,0.00
2013-9-12,89,75,68,58,17,9,36,4,1,30.11,29.85,0,0,0,0.00
2013-9-13,82,72,61,62,31,4,54,23,1,29.94,29.80,0,0,0,0.00
2013-9-14,74,62,52,55,24,-3,54,25,1,30.16,29.94,0,0,0,0.00
2013-9-15,78,63,49,58,15,-5,50,13,1,30.25,30.14,0,0,0,0.00
2013-9-16,84,72,60,63,25,4,52,16,1,30.22,30.08,0,0,0,0.00
2013-9-17,74,65,55,56,24,-1,54,22,1,30.35,30.22,0,0,0,0.00
2013-9-18,72,58,47,53,14,-7,53,16,1,30.32,30.19,0,0,0,0.00
2013-9-19,75,62,49,53,10,-5,45,8,1,30.21,30.10,0,0,0,0.00
2013-9-20,70,66,62,11,8,5,1,1,1,30.11,29.99,0,0,0,0.06
2013-9-21,76,70,65,16,11,7,1,1,1,29.99,29.76,0,0,0,0.46
2013-9-22,73,65,58,52,12,-12,47,6,1,29.93,29.75,0,0,0,0.27
2013-9-23,71,60,52,52,15,-4,52,15,1,30.09,29.93,0,0,0,0.00
2013-9-24,74,62,52,50,10,-23,45,8,1,30.11,29.96,0,0,0,0.00
2013-9-25,63,63,63,6,6,5,1,1,1,29.92,29.89,0,0,0,0.00
2013-9-26,74,65,57,56,18,1,53,15,1,30.05,29.89,0,0,0,0.00
2013-9-27,73,61,53,52,13,-2,49,12,1,30.19,30.05,0,0,0,0.00
2013-9-28,69,58,51,47,11,-18,47,12,1,30.25,30.16,0,0,0,0.00
2013-9-29,70,58,50,51,11,-11,51,12,1,30.17,30.03,0,0,0,0.00
2013-9-30,75,60,50,53,9,-4,48,9,1,30.09,29.99,0,0,0,0.00
2013-10-1,80,63,53,60,14,-10,52,11,1,30.11,30.01,0,0,0,0.00
2013-10-2,82,67,57,62,24,-15,52,19,1,30.13,30.04,0,0,0,0.00
2013-10-6,71,71,70,12,12,11,1,1,1,29.96,29.94,0,0,0,0.00
2013-10-7,73,71,62,14,12,5,1,1,1,30.02,29.86,0,0,0,1.03
2013-10-8,63,59,55,42,26,1,47,30,1,30.22,30.02,0,0,0,0.00
2013-10-9,66,57,53,36,4,-2,36,7,1,30.19,30.11,0,0,0,0.03
2013-10-10,62,58,54,5,2,-2,1,1,1,30.10,29.96,0,0,0,0.39
2013-10-11,68,65,62,9,7,5,1,1,1,29.98,29.92,0,0,0,0.00
2013-10-12,69,65,60,10,7,4,1,1,1,30.09,29.96,0,0,0,0.04
2013-10-13,68,64,62,9,7,5,1,1,1,30.22,30.08,0,0,0,0.05
2013-10-14,65,62,58,7,5,2,1,1,1,30.25,30.18,0,0,0,0.03
2013-10-15,71,61,54,46,10,-16,44,8,1,30.21,30.06,0,0,0,0.00
2013-10-19,65,60,54,7,4,-1,1,1,1,29.94,29.81,0,0,0,0.01
2013-10-20,62,52,42,44,13,-11,54,21,1,30.11,29.91,0,0,0,0.00
2013-10-21,66,51,36,48,9,-15,53,17,1,30.14,29.99,0,0,0,0.00
2013-10-22,67,57,49,41,6,-17,39,7,1,29.99,29.79,0,0,0,0.00
2013-10-23,64,56,44,45,18,-3,58,24,1,29.99,29.68,0,0,0,0.01
2013-10-24,56,45,33,38,19,-18,55,37,1,30.15,29.99,0,0,0,0.00
2013-10-25,54,44,35,33,22,-16,57,43,1,30.33,30.15,0,0,0,0.00
2013-10-26,57,42,27,36,14,-22,56,34,1,30.32,30.04,0,0,0,0.00
2013-10-27,65,52,39,43,23,-13,56,36,1,30.10,30.01,0,0,0,0.00
2013-10-30,56,56,55,0,0,0,1,1,1,30.18,30.17,0,0,0,0.00
2013-10-31,72,62,53,48,12,-2,42,10,1,30.17,29.89,0,0,0,0.00
2013-11-1,68,66,62,10,8,5,1,1,1,29.89,29.64,0,0,0,0.28
2013-11-2,68,59,50,47,14,-5,51,15,1,29.93,29.69,0,0,0,0.12
2013-11-3,61,50,40,40,22,-12,55,36,1,30.33,29.93,0,0,0,0.00
2013-11-4,54,43,36,35,21,-8,57,42,16,30.51,30.32,0,0,0,0.00
2013-11-5,56,46,34,34,12,-17,56,28,1,30.50,30.39,0,0,0,0.00
2013-11-6,68,54,41,46,8,-11,44,12,1,30.39,30.09,0,0,0,0.00
2013-11-7,66,58,46,42,15,-2,57,20,1,30.09,29.91,0,0,0,0.00
2013-11-8,54,44,33,31,26,13,60,50,35,30.28,30.08,0,0,0,0.00
2013-11-9,54,39,29,34,17,-7,57,43,21,30.30,30.12,0,0,0,0.00
2013-11-10,68,53,37,42,30,2,55,43,23,30.20,30.03,0,0,0,0.00
2013-11-11,57,46,33,34,28,18,60,51,40,30.30,30.09,0,0,0,0.00
2013-11-12,57,42,33,38,16,-17,56,39,7,30.38,30.00,0,0,0,0.03
2013-11-13,42,33,26,21,17,12,60,53,41,30.47,30.38,0,0,0,0.00
2013-11-14,56,38,24,28,19,4,59,46,32,30.40,30.27,0,0,0,0.00
2013-11-15,60,46,32,42,28,-5,59,51,10,30.29,30.16,0,0,0,0.01
2013-11-16,59,53,47,2,-2,-7,1,1,1,30.22,30.17,0,0,0,0.04
2013-11-17,66,60,55,8,4,0,1,1,1,30.18,29.87,0,0,0,0.04
2013-11-18,72,64,53,51,26,5,50,25,1,29.94,29.78,0,0,0,0.10
2013-11-19,53,47,40,31,29,27,58,49,41,30.25,29.95,0,0,0,0.00
2013-11-20,52,43,37,34,29,24,60,56,49,30.39,30.26,0,0,0,0.00
2013-11-21,58,48,38,39,13,-13,49,26,3,30.45,30.33,0,0,0,0.00
2013-11-22,67,55,46,23,-5,-37,19,3,1,30.33,29.60,0,0,0,0.00
2013-11-23,60,54,41,40,21,-29,53,31,1,30.13,29.71,0,0,0,0.00
2013-11-24,41,32,24,23,11,5,59,41,28,30.46,30.13,0,0,0,0.00
2013-11-25,42,31,19,20,14,9,64,51,32,30.50,30.30,0,0,0,0.00
2013-11-26,63,41,35,24,5,-16,60,24,1,30.30,29.55,0,0,0,0.87
2013-11-27,47,38,29,20,-2,-17,58,17,1,30.10,29.45,0,0,0,0.64
2013-11-28,41,30,21,24,15,-2,59,52,37,30.40,30.10,0,0,0,0.00
2013-11-29,47,37,25,29,19,-11,58,48,20,30.55,30.37,0,0,0,0.00
2013-11-30,46,34,26,30,13,-22,59,44,1,30.56,30.29,0,0,0,0.00
2013-12-1,55,37,24,36,4,-25,56,27,1,30.29,29.96,0,0,0,0.00
2013-12-2,35,32,30,1,-14,-20,24,8,1,29.96,29.84,0,0,0,0.00
2013-12-9,44,44,44,-9,-19,-38,1,1,1,30.02,29.99,0,0,0,0.00
2013-12-10,48,41,28,31,-4,-38,56,15,1,30.24,29.67,0,0,0,0.42
2013-12-11,46,34,21,28,4,-29,57,31,1,30.37,30.20,0,0,0,0.00
2013-12-12,41,34,26,22,16,-20,61,49,11,30.34,30.19,0,0,0,0.00
2013-12-13,48,35,23,27,18,7,60,51,38,30.30,30.19,0,0,0,0.00
2013-12-15,44,43,43,0,-6,-10,1,1,1,29.86,29.80,0,0,0,2.59
2013-12-26,35,30,28,25,17,-100,80,68,61,29.95,29.93,2,-49,0,0.00
2013-12-27,53,34,22,27,22,20,96,66,29,30.01,29.90,3,1,0,0.04
2013-12-28,60,39,23,39,24,-100,95,63,30,29.94,29.75,4,-23,0,0.02
2013-12-30,52,45,41,42,35,-100,85,71,63,29.98,29.91,3,-21,0,0.00
2013-12-31,50,38,28,37,30,23,99,76,36,30.10,29.94,5,1,0,0.00
2014-1-1,50,36,27,29,26,24,97,73,38,30.11,29.84,4,1,0,0.00
2014-1-2,48,40,33,44,37,29,99,88,67,29.84,29.39,6,1,0,0.35